createdAt,value
2023-05-19T00:00:56.645Z,4.40
2023-05-19T00:03:24.724Z,6.40
2023-05-19T00:05:53.992Z,3.20
2023-05-19T00:08:23.249Z,5.23
2023-05-19T00:10:54.237Z,3.50
2023-05-19T00:13:23.025Z,4.33
2023-05-19T00:15:50.770Z,4.93
2023-05-19T00:18:19.652Z,3.33
2023-05-19T00:20:47.002Z,4.17
2023-05-19T00:23:14.437Z,4.17
2023-05-19T00:25:41.874Z,6.23
2023-05-19T00:28:09.363Z,4.07
2023-05-19T00:30:36.853Z,4.10
2023-05-19T00:33:04.354Z,4.43
2023-05-19T00:35:33.410Z,6.40
2023-05-19T00:38:00.783Z,3.93
2023-05-19T00:40:30.560Z,4.17
2023-05-19T00:43:00.422Z,3.70
2023-05-19T00:45:28.085Z,6.17
2023-05-19T00:47:55.434Z,3.57
2023-05-19T00:50:23.199Z,3.47
2023-05-19T00:52:52.082Z,4.53
2023-05-19T00:55:21.203Z,5.93
2023-05-19T00:57:49.878Z,7.63
2023-05-19T01:00:17.594Z,5.00
2023-05-19T01:02:45.041Z,3.57
2023-05-19T01:05:13.055Z,4.43
2023-05-19T01:07:41.272Z,4.63
2023-05-19T01:10:10.833Z,5.17
2023-05-19T01:12:38.945Z,4.87
2023-05-19T01:15:07.771Z,4.97
2023-05-19T01:17:41.617Z,4.80
2023-05-19T01:20:16.714Z,3.03
2023-05-19T01:23:18.744Z,5.17
2023-05-19T01:26:35.664Z,6.40
2023-05-19T01:29:14.871Z,3.77
2023-05-19T01:31:44.243Z,8.70
2023-05-19T01:34:13.251Z,7.30
2023-05-19T01:36:42.547Z,6.57
2023-05-19T01:39:10.217Z,5.53
2023-05-19T01:41:39.650Z,7.47
2023-05-19T01:44:07.921Z,4.50
2023-05-19T01:46:36.030Z,7.50
2023-05-19T01:49:05.336Z,7.30
2023-05-19T01:51:32.750Z,4.27
2023-05-19T01:54:00.205Z,5.90
2023-05-19T01:56:49.904Z,7.13
2023-05-19T01:59:30.729Z,6.20
2023-05-19T02:02:02.280Z,5.97
2023-05-19T02:04:37.139Z,4.70
2023-05-19T02:07:12.775Z,6.03
2023-05-19T02:09:57.750Z,4.07
2023-05-19T02:12:28.949Z,6.00
2023-05-19T02:15:03.760Z,4.87
2023-05-19T02:17:33.306Z,6.43
2023-05-19T02:20:02.126Z,5.53
2023-05-19T02:22:29.492Z,5.40
2023-05-19T02:24:57.084Z,5.10
2023-05-19T02:27:24.387Z,5.93
2023-05-19T02:29:52.174Z,8.03
2023-05-19T02:32:20.532Z,5.10
2023-05-19T02:34:48.057Z,4.87
2023-05-19T02:37:16.919Z,5.07
2023-05-19T02:39:44.317Z,5.20
2023-05-19T02:42:11.719Z,5.13
2023-05-19T02:44:39.124Z,4.60
2023-05-19T02:47:06.635Z,7.27
2023-05-19T02:49:36.789Z,3.80
2023-05-19T02:52:04.984Z,6.13
2023-05-19T02:54:34.430Z,7.47
2023-05-19T02:57:02.233Z,8.23
2023-05-19T02:59:29.583Z,4.73
2023-05-19T03:02:01.550Z,5.93
2023-05-19T03:04:29.448Z,4.73
2023-05-19T03:06:56.967Z,4.27
2023-05-19T03:09:26.994Z,6.60
2023-05-19T03:11:55.701Z,7.97
2023-05-19T03:14:23.027Z,8.80
2023-05-19T03:16:50.586Z,5.77
2023-05-19T03:19:18.152Z,5.57
2023-05-19T03:21:45.673Z,5.00
2023-05-19T03:24:13.177Z,4.27
2023-05-19T03:26:40.702Z,4.40
2023-05-19T03:29:09.487Z,6.43
2023-05-19T03:31:36.830Z,4.40
2023-05-19T03:34:04.214Z,4.93
2023-05-19T03:36:31.582Z,5.03
2023-05-19T03:38:59.061Z,5.00
2023-05-19T03:41:26.420Z,4.77
2023-05-19T03:43:53.731Z,4.07
2023-05-19T03:46:22.508Z,4.83
2023-05-19T03:48:49.940Z,5.23
2023-05-19T03:51:17.250Z,5.17
2023-05-19T03:53:44.619Z,4.87
2023-05-19T03:56:12.167Z,4.17
2023-05-19T03:58:39.783Z,5.87
2023-05-19T04:01:07.235Z,5.47
2023-05-19T04:03:36.021Z,6.43
2023-05-19T04:06:03.417Z,5.50
2023-05-19T04:08:30.767Z,5.87
2023-05-19T04:10:58.376Z,7.77
2023-05-19T04:13:25.855Z,7.70
2023-05-19T04:15:53.337Z,4.87
2023-05-19T04:18:20.679Z,4.13
2023-05-19T04:20:49.465Z,5.33
2023-05-19T04:23:16.906Z,5.20
2023-05-19T04:25:44.328Z,6.00
2023-05-19T04:28:11.678Z,5.57
2023-05-19T04:30:39.220Z,5.50
2023-05-19T04:33:06.684Z,5.57
2023-05-19T04:35:34.135Z,6.10
2023-05-19T04:38:02.881Z,6.40
2023-05-19T04:40:30.473Z,5.63
2023-05-19T04:42:57.991Z,5.20
2023-05-19T04:45:25.493Z,5.90
2023-05-19T04:47:52.957Z,4.87
2023-05-19T04:50:20.315Z,5.67
2023-05-19T04:52:47.642Z,5.73
2023-05-19T04:55:16.557Z,5.40
2023-05-19T04:57:46.128Z,6.30
2023-05-19T05:00:14.336Z,8.53
2023-05-19T05:02:41.842Z,6.13
2023-05-19T05:05:09.788Z,8.50
2023-05-19T05:07:37.259Z,5.27
2023-05-19T05:10:06.049Z,10.60
2023-05-19T05:12:35.659Z,6.20
2023-05-19T05:15:03.850Z,8.23
2023-05-19T05:17:31.714Z,7.80
2023-05-19T05:19:59.790Z,6.80
2023-05-19T05:22:27.721Z,5.70
2023-05-19T05:24:55.734Z,6.13
2023-05-19T05:27:23.220Z,6.10
2023-05-19T05:29:52.570Z,9.30
2023-05-19T05:32:19.961Z,6.20
2023-05-19T05:34:47.353Z,5.93
2023-05-19T05:37:15.433Z,7.97
2023-05-19T05:39:43.038Z,6.73
2023-05-19T05:42:10.953Z,10.40
2023-05-19T05:44:38.468Z,7.47
2023-05-19T05:47:08.742Z,5.43
2023-05-19T05:49:36.944Z,7.00
2023-05-19T05:52:06.547Z,5.93
2023-05-19T05:54:35.038Z,5.40
2023-05-19T05:57:02.962Z,6.87
2023-05-19T05:59:30.344Z,6.53
2023-05-19T06:01:57.811Z,5.47
2023-05-19T06:04:26.556Z,5.83
2023-05-19T06:06:53.880Z,5.73
2023-05-19T06:09:21.369Z,4.50
2023-05-19T06:11:48.707Z,4.83
2023-05-19T06:14:16.083Z,5.20
2023-05-19T06:16:45.681Z,7.67
2023-05-19T06:19:13.710Z,5.37
2023-05-19T06:21:45.252Z,5.10
2023-05-19T06:24:15.416Z,6.83
2023-05-19T06:26:42.725Z,8.00
2023-05-19T06:29:10.150Z,5.57
2023-05-19T06:31:40.831Z,6.00
2023-05-19T06:34:08.429Z,6.80
2023-05-19T06:36:35.792Z,6.43
2023-05-19T06:39:04.509Z,6.70
2023-05-19T06:41:31.894Z,6.87
2023-05-19T06:43:59.229Z,8.73
2023-05-19T06:46:26.724Z,8.27
2023-05-19T06:48:54.024Z,5.10
2023-05-19T06:51:21.335Z,7.70
2023-05-19T06:53:48.767Z,7.87
2023-05-19T06:56:17.495Z,6.23
2023-05-19T06:58:45.064Z,10.13
2023-05-19T07:01:12.442Z,6.23
2023-05-19T07:03:40.076Z,7.60
2023-05-19T07:06:08.495Z,6.40
2023-05-19T07:08:36.092Z,7.20
2023-05-19T07:11:03.756Z,6.93
2023-05-19T07:13:32.621Z,6.20
2023-05-19T07:16:00.065Z,8.23
2023-05-19T07:18:27.632Z,6.67
2023-05-19T07:20:54.979Z,8.23
2023-05-19T07:23:22.490Z,9.50
2023-05-19T07:25:49.819Z,6.17
2023-05-19T07:28:17.162Z,6.43
2023-05-19T07:30:45.891Z,6.60
2023-05-19T07:33:13.424Z,7.17
2023-05-19T07:35:41.367Z,5.03
2023-05-19T07:38:08.717Z,6.40
2023-05-19T07:40:36.159Z,7.70
2023-05-19T07:43:03.554Z,6.57
2023-05-19T07:45:30.907Z,4.87
2023-05-19T07:47:59.723Z,6.03
2023-05-19T07:50:27.400Z,6.13
2023-05-19T07:52:54.801Z,8.03
2023-05-19T07:55:22.217Z,6.93
2023-05-19T07:57:49.729Z,5.50
2023-05-19T08:00:20.414Z,7.07
2023-05-19T08:02:50.780Z,5.40
2023-05-19T08:05:22.612Z,6.57
2023-05-19T08:07:52.701Z,6.20
2023-05-19T08:10:46.419Z,4.53
2023-05-19T08:13:13.793Z,4.33
2023-05-19T08:15:41.382Z,4.73
2023-05-19T08:18:44.090Z,7.40
2023-05-19T08:21:12.830Z,4.87
2023-05-19T08:23:40.161Z,6.17
2023-05-19T08:26:07.638Z,6.00
2023-05-19T08:28:35.009Z,4.70
2023-05-19T08:31:02.460Z,5.70
2023-05-19T08:33:29.926Z,6.67
2023-05-19T08:35:57.272Z,6.07
2023-05-19T08:38:26.365Z,5.70
2023-05-19T08:40:53.934Z,6.22
2023-05-19T08:43:21.529Z,5.00
2023-05-19T08:45:48.816Z,5.25
2023-05-19T08:48:18.098Z,3.90
2023-05-19T08:50:57.017Z,4.57
2023-05-19T08:53:33.658Z,7.95
2023-05-19T08:56:06.176Z,8.65
2023-05-19T08:58:34.241Z,6.25
2023-05-19T09:01:02.863Z,3.80
2023-05-19T09:03:31.937Z,5.20
2023-05-19T09:05:59.459Z,4.32
2023-05-19T09:08:31.420Z,4.15
2023-05-19T09:10:58.774Z,4.70
2023-05-19T09:13:26.264Z,4.40
2023-05-19T09:15:53.695Z,5.10
2023-05-19T09:18:21.035Z,5.20
2023-05-19T09:20:48.440Z,5.28
2023-05-19T09:23:17.344Z,4.25
2023-05-19T09:25:49.903Z,4.03
2023-05-19T09:28:24.944Z,5.65
2023-05-19T09:31:02.600Z,4.90
2023-05-19T09:33:32.557Z,3.42
2023-05-19T09:36:00.316Z,3.60
2023-05-19T09:38:27.970Z,4.40
2023-05-19T09:41:00.653Z,4.75
2023-05-19T09:43:28.424Z,4.63
2023-05-19T09:45:59.769Z,6.40
2023-05-19T09:48:27.369Z,4.65
2023-05-19T09:50:54.876Z,5.23
2023-05-19T09:53:22.360Z,3.90
2023-05-19T09:55:50.946Z,4.40
2023-05-19T09:58:22.386Z,4.70
2023-05-19T10:00:50.965Z,5.50
2023-05-19T10:03:19.308Z,4.20
2023-05-19T10:05:47.443Z,4.83
2023-05-19T10:08:16.666Z,4.80
2023-05-19T10:10:45.847Z,5.10
2023-05-19T10:13:13.594Z,5.17
2023-05-19T10:15:57.080Z,6.87
2023-05-19T10:18:26.298Z,4.95
2023-05-19T10:20:54.343Z,3.92
2023-05-19T10:23:21.771Z,3.90
2023-05-19T10:25:50.427Z,4.40
2023-05-19T10:28:19.896Z,4.80
2023-05-19T10:30:54.110Z,3.70
2023-05-19T10:33:35.710Z,3.22
2023-05-19T10:36:15.666Z,4.43
2023-05-19T10:38:53.299Z,5.32
2023-05-19T10:41:31.131Z,4.23
2023-05-19T10:44:09.245Z,3.00
2023-05-19T10:46:40.414Z,2.93
2023-05-19T10:49:08.149Z,2.95
2023-05-19T10:51:35.735Z,3.90
2023-05-19T10:54:03.698Z,4.50
2023-05-19T10:56:32.273Z,3.22
2023-05-19T10:59:00.177Z,4.18
2023-05-19T11:01:32.350Z,3.08
2023-05-19T11:04:06.744Z,2.80
2023-05-19T11:06:35.246Z,2.67
2023-05-19T11:09:12.060Z,3.05
2023-05-19T11:11:46.877Z,3.45
2023-05-19T11:14:15.954Z,3.97
2023-05-19T11:16:47.334Z,3.13
2023-05-19T11:19:25.614Z,4.30
2023-05-19T11:21:53.506Z,4.82
2023-05-19T11:24:43.436Z,3.70
2023-05-19T11:27:35.293Z,4.50
2023-05-19T11:30:10.526Z,5.65
2023-05-19T11:32:37.935Z,3.63
2023-05-19T11:35:07.744Z,4.50
2023-05-19T11:37:35.656Z,3.40
2023-05-19T11:40:04.133Z,3.20
2023-05-19T11:42:35.517Z,3.20
2023-05-19T11:45:03.710Z,3.22
2023-05-19T11:47:38.804Z,3.42
2023-05-19T11:50:16.941Z,3.60
2023-05-19T11:52:44.638Z,3.15
2023-05-19T11:55:15.882Z,4.25
2023-05-19T11:58:02.872Z,4.90
2023-05-19T12:00:35.781Z,4.25
2023-05-19T12:03:03.310Z,3.20
2023-05-19T12:05:35.471Z,3.05
2023-05-19T12:08:06.460Z,4.97
2023-05-19T12:10:34.858Z,3.00
2023-05-19T12:13:02.950Z,3.35
2023-05-19T12:15:32.032Z,3.53
2023-05-19T12:18:01.396Z,2.80
2023-05-19T12:20:30.588Z,3.90
2023-05-19T12:23:00.892Z,3.05
2023-05-19T12:25:29.722Z,4.28
2023-05-19T12:28:00.271Z,3.30
2023-05-19T12:30:28.580Z,3.58
2023-05-19T12:32:56.744Z,2.88
2023-05-19T12:35:28.118Z,3.85
2023-05-19T12:38:06.905Z,4.22
2023-05-19T12:40:35.438Z,4.53
2023-05-19T12:43:03.923Z,2.90
2023-05-19T12:45:34.311Z,3.50
2023-05-19T12:48:03.784Z,3.30
2023-05-19T12:50:31.732Z,3.47
2023-05-19T12:52:59.230Z,3.15
2023-05-19T12:55:28.159Z,3.20
2023-05-19T12:57:55.566Z,3.05
2023-05-19T13:00:24.079Z,3.90
2023-05-19T13:02:58.939Z,3.08
2023-05-19T13:05:27.621Z,3.65
2023-05-19T13:07:58.806Z,3.08
2023-05-19T13:10:28.253Z,3.50
2023-05-19T13:12:56.457Z,3.30
2023-05-19T13:15:25.363Z,3.30
2023-05-19T13:17:53.927Z,3.20
2023-05-19T13:20:21.857Z,3.47
2023-05-19T13:22:49.823Z,2.95
2023-05-19T13:25:17.378Z,4.53
2023-05-19T13:27:48.649Z,3.20
2023-05-19T13:30:16.409Z,5.60
2023-05-19T13:32:44.034Z,3.30
2023-05-19T13:35:12.790Z,3.35
2023-05-19T13:37:41.486Z,3.35
2023-05-19T13:40:10.195Z,3.25
2023-05-19T13:42:37.670Z,4.43
2023-05-19T13:45:13.953Z,2.75
2023-05-19T13:47:41.496Z,4.40
2023-05-19T13:50:09.394Z,3.50
2023-05-19T13:52:36.777Z,3.53
2023-05-19T13:55:06.397Z,4.40
2023-05-19T13:57:34.021Z,4.70
2023-05-19T14:00:04.827Z,3.35
2023-05-19T14:02:33.848Z,5.78
2023-05-19T14:05:01.503Z,3.83
2023-05-19T14:07:28.934Z,5.20
2023-05-19T14:09:56.323Z,3.92
2023-05-19T14:12:35.416Z,3.28
2023-05-19T14:15:09.134Z,3.65
2023-05-19T14:17:38.901Z,5.18
2023-05-19T14:20:07.349Z,4.22
2023-05-19T14:22:34.693Z,3.55
2023-05-19T14:25:02.464Z,4.03
2023-05-19T14:27:29.948Z,3.35
2023-05-19T14:29:57.488Z,3.85
2023-05-19T14:32:30.221Z,3.65
2023-05-19T14:34:59.398Z,3.53
2023-05-19T14:37:26.922Z,3.17
2023-05-19T14:39:54.732Z,3.40
2023-05-19T14:42:22.078Z,7.18
2023-05-19T14:44:49.572Z,3.22
2023-05-19T14:47:16.923Z,5.00
2023-05-19T14:49:46.578Z,5.30
2023-05-19T14:52:15.557Z,3.92
2023-05-19T14:54:43.081Z,3.22
2023-05-19T14:57:10.529Z,6.32
2023-05-19T14:59:40.668Z,4.65
2023-05-19T15:02:08.165Z,5.07
2023-05-19T15:04:35.462Z,3.42
2023-05-19T15:07:09.702Z,5.80
2023-05-19T15:09:39.525Z,3.53
2023-05-19T15:12:07.057Z,3.37
2023-05-19T15:14:34.500Z,4.73
2023-05-19T15:17:01.980Z,3.50
2023-05-19T15:19:29.455Z,3.50
2023-05-19T15:21:56.854Z,5.33
2023-05-19T15:24:24.302Z,4.10
2023-05-19T15:26:53.086Z,4.83
2023-05-19T15:29:20.428Z,5.33
2023-05-19T15:31:50.250Z,5.10
2023-05-19T15:34:17.708Z,4.30
2023-05-19T15:36:45.087Z,4.73
2023-05-19T15:39:12.549Z,4.23
2023-05-19T15:41:40.001Z,4.70
2023-05-19T15:44:08.868Z,4.70
2023-05-19T15:46:36.294Z,4.70
2023-05-19T15:49:03.853Z,5.20
2023-05-19T15:51:31.346Z,4.73
2023-05-19T15:53:58.701Z,4.60
2023-05-19T15:56:26.140Z,4.70
2023-05-19T15:58:53.435Z,5.93
2023-05-19T16:01:22.239Z,4.30
2023-05-19T16:03:49.690Z,5.23
2023-05-19T16:06:17.243Z,4.53
2023-05-19T16:08:44.742Z,4.90
2023-05-19T16:11:12.240Z,5.60
2023-05-19T16:13:42.858Z,4.50
2023-05-19T16:16:10.221Z,4.97
2023-05-19T16:18:39.182Z,5.10
2023-05-19T16:21:06.639Z,4.40
2023-05-19T16:23:34.105Z,5.77
2023-05-19T16:26:01.670Z,4.10
2023-05-19T16:28:29.033Z,4.50
2023-05-19T16:30:57.513Z,5.10
2023-05-19T16:33:24.882Z,5.67
2023-05-19T16:35:57.543Z,5.73
2023-05-19T16:38:24.967Z,4.43
2023-05-19T16:40:54.711Z,6.17
2023-05-19T16:43:22.157Z,5.90
2023-05-19T16:45:49.572Z,4.23
2023-05-19T16:48:16.978Z,4.53
2023-05-19T16:50:44.533Z,4.47
2023-05-19T16:53:13.328Z,4.17
2023-05-19T16:55:42.090Z,4.13
2023-05-19T16:58:09.563Z,3.93
2023-05-19T17:00:36.955Z,4.30
2023-05-19T17:03:04.771Z,4.00
2023-05-19T17:05:32.188Z,3.83
2023-05-19T17:07:59.683Z,4.40
2023-05-19T17:10:28.499Z,4.60
2023-05-19T17:12:55.790Z,5.17
2023-05-19T17:15:23.256Z,4.40
2023-05-19T17:17:50.666Z,5.27
2023-05-19T17:20:18.176Z,4.73
2023-05-19T17:23:03.981Z,6.07
2023-05-19T17:25:44.338Z,5.80
2023-05-19T17:28:12.049Z,5.03
2023-05-19T17:30:39.725Z,5.67
2023-05-19T17:33:07.050Z,6.00
2023-05-19T17:35:34.711Z,5.90
2023-05-19T17:38:02.117Z,6.33
2023-05-19T17:40:29.844Z,6.97
2023-05-19T17:42:58.567Z,6.60
2023-05-19T17:45:59.579Z,7.07
2023-05-19T17:48:48.697Z,7.10
2023-05-19T17:51:49.020Z,5.37
2023-05-19T17:54:37.119Z,7.10
2023-05-19T17:57:25.470Z,7.40
2023-05-19T18:00:18.381Z,6.40
2023-05-19T18:03:18.452Z,5.67
2023-05-19T18:05:46.674Z,5.57
2023-05-19T18:08:17.344Z,6.40
2023-05-19T18:10:47.668Z,5.63
2023-05-19T18:13:44.254Z,5.57
2023-05-19T18:16:15.505Z,8.27
2023-05-19T18:19:03.543Z,7.80
2023-05-19T18:21:39.957Z,5.73
2023-05-19T18:24:39.360Z,5.50
2023-05-19T18:27:12.700Z,6.03
2023-05-19T18:29:46.088Z,7.17
2023-05-19T18:32:47.362Z,7.43
2023-05-19T18:35:14.890Z,5.83
2023-05-19T18:37:44.788Z,7.57
2023-05-19T18:40:12.248Z,5.80
2023-05-19T18:42:39.544Z,4.90
2023-05-19T18:45:07.792Z,5.80
2023-05-19T18:47:38.438Z,5.50
2023-05-19T18:50:10.298Z,5.33
2023-05-19T18:52:37.674Z,5.30
2023-05-19T18:55:12.550Z,6.60
2023-05-19T18:58:12.412Z,6.10
2023-05-19T19:01:00.159Z,5.60
2023-05-19T19:03:33.118Z,6.33
2023-05-19T19:06:17.609Z,7.13
2023-05-19T19:08:50.869Z,5.80
2023-05-19T19:11:20.417Z,5.60
2023-05-19T19:14:07.944Z,7.17
2023-05-19T19:17:07.647Z,8.10
2023-05-19T19:19:58.323Z,6.97
2023-05-19T19:22:56.151Z,7.97
2023-05-19T19:25:26.130Z,6.20
2023-05-19T19:27:59.422Z,5.67
2023-05-19T19:30:29.869Z,6.50
2023-05-19T19:33:06.978Z,8.50
2023-05-19T19:35:37.405Z,9.77
2023-05-19T19:38:14.772Z,7.40
2023-05-19T19:40:51.223Z,7.43
2023-05-19T19:43:18.893Z,6.30
2023-05-19T19:45:46.428Z,8.27
2023-05-19T19:48:19.258Z,6.40
2023-05-19T19:50:53.692Z,6.17
2023-05-19T19:53:45.645Z,6.47
2023-05-19T19:56:45.484Z,7.73
2023-05-19T19:59:12.833Z,8.90
2023-05-19T20:01:46.303Z,7.10
2023-05-19T20:04:13.989Z,7.03
2023-05-19T20:06:41.400Z,7.27
2023-05-19T20:09:10.091Z,7.70
2023-05-19T20:11:49.031Z,10.93
2023-05-19T20:14:35.057Z,8.50
2023-05-19T20:17:20.791Z,10.93
2023-05-19T20:20:12.133Z,8.23
2023-05-19T20:22:58.058Z,8.10
2023-05-19T20:25:58.857Z,6.77
2023-05-19T20:28:48.929Z,7.40
2023-05-19T20:31:52.364Z,7.40
2023-05-19T20:34:23.024Z,7.70
2023-05-19T20:37:09.000Z,8.00
2023-05-19T20:39:37.439Z,7.10
2023-05-19T20:42:20.764Z,7.33
2023-05-19T20:44:50.486Z,7.23
2023-05-19T20:47:17.851Z,7.03
2023-05-19T20:49:45.272Z,9.83
2023-05-19T20:52:12.688Z,9.63
2023-05-19T20:54:42.678Z,8.10
2023-05-19T20:57:17.347Z,7.57
2023-05-19T20:59:46.393Z,8.67
2023-05-19T21:02:13.731Z,7.97
2023-05-19T21:04:41.148Z,11.00
2023-05-19T21:07:11.555Z,8.30
2023-05-19T21:09:39.124Z,9.60
2023-05-19T21:12:15.172Z,10.27
2023-05-19T21:14:42.677Z,11.20
2023-05-19T21:17:11.526Z,9.80
2023-05-19T21:19:41.465Z,8.57
2023-05-19T21:22:17.887Z,8.17
2023-05-19T21:25:08.838Z,8.63
2023-05-19T21:27:44.266Z,8.67
2023-05-19T21:30:12.799Z,7.43
2023-05-19T21:32:43.906Z,8.37
2023-05-19T21:35:11.279Z,9.40
2023-05-19T21:37:38.607Z,11.17
2023-05-19T21:40:07.265Z,9.37
2023-05-19T21:42:34.890Z,8.10
2023-05-19T21:45:02.321Z,7.80
2023-05-19T21:47:29.719Z,9.77
2023-05-19T21:49:58.577Z,11.20
2023-05-19T21:52:26.195Z,7.87
2023-05-19T21:54:53.673Z,8.53
2023-05-19T21:57:21.037Z,13.53
2023-05-19T21:59:48.595Z,10.17
2023-05-19T22:02:16.141Z,8.47
2023-05-19T22:04:43.481Z,8.17
2023-05-19T22:07:12.266Z,10.90
2023-05-19T22:09:41.878Z,8.13
2023-05-19T22:12:09.330Z,8.47
2023-05-19T22:14:36.682Z,10.53
2023-05-19T22:17:04.341Z,10.83
2023-05-19T22:19:31.889Z,11.03
2023-05-19T22:22:09.716Z,10.07
2023-05-19T22:24:41.802Z,8.33
2023-05-19T22:27:09.252Z,8.53
2023-05-19T22:29:37.342Z,7.60
2023-05-19T22:32:05.662Z,10.73
2023-05-19T22:34:33.078Z,8.40
2023-05-19T22:37:00.507Z,8.00
2023-05-19T22:39:27.979Z,10.03
2023-05-19T22:41:56.685Z,9.97
2023-05-19T22:44:24.148Z,9.27
2023-05-19T22:46:51.448Z,8.87
2023-05-19T22:49:18.771Z,13.30
2023-05-19T22:51:46.141Z,8.87
2023-05-19T22:54:13.514Z,12.40
2023-05-19T22:56:42.109Z,8.60
2023-05-19T22:59:11.878Z,14.23
2023-05-19T23:01:39.262Z,9.77
2023-05-19T23:04:06.761Z,11.43
2023-05-19T23:06:34.146Z,7.53
2023-05-19T23:09:02.420Z,10.20
2023-05-19T23:11:29.993Z,10.33
2023-05-19T23:13:57.418Z,30.53
2023-05-19T23:16:26.165Z,13.10
2023-05-19T23:18:53.544Z,9.37
2023-05-19T23:21:21.148Z,9.27
2023-05-19T23:23:49.341Z,10.80
2023-05-19T23:26:16.855Z,10.53
2023-05-19T23:28:44.502Z,12.23
2023-05-19T23:31:11.920Z,9.30
2023-05-19T23:33:40.761Z,9.37
2023-05-19T23:36:10.039Z,8.27
2023-05-19T23:38:37.845Z,10.60
2023-05-19T23:41:05.391Z,9.00
2023-05-19T23:43:41.732Z,8.27
2023-05-19T23:46:09.369Z,8.67
2023-05-19T23:48:36.954Z,9.87
2023-05-19T23:51:05.905Z,10.03
2023-05-19T23:53:33.267Z,9.77
2023-05-19T23:56:00.645Z,10.20
2023-05-19T23:58:28.030Z,9.97
